Time;durP1;ratioP1;P1;durP2;ratioP2;P2;SDS_P1;SDS_P2;PMS_P1;PMS_P2;Temp;Humidity;BMP_temperature;BMP_pressure;BME280_temperature;BME280_humidity;BME280_pressure;Samples;Min_cycle;Max_cycle;Signal;HPM_P1;HPM_P2
2021/03/02 00:00:13;;;;;;;15.60;9.52;;;23.30;47.80;;;;;;4922981;28;20065;-56
2021/03/02 00:02:41;;;;;;;13.60;8.43;;;23.30;47.80;;;;;;4962980;28;20117;-56
2021/03/02 00:05:11;;;;;;;14.07;8.90;;;23.30;47.80;;;;;;4969481;28;20031;-57
2021/03/02 00:07:38;;;;;;;;;;;23.30;47.90;;;;;;4967070;28;20057;-56
2021/03/02 00:10:09;;;;;;;17.38;9.40;;;23.30;47.80;;;;;;4956194;28;19952;-57
2021/03/02 00:12:35;;;;;;;14.57;8.40;;;23.30;48.00;;;;;;4966213;28;20032;-57
2021/03/02 00:15:03;;;;;;;13.13;8.63;;;23.30;48.00;;;;;;4960766;28;20062;-56
2021/03/02 00:17:39;;;;;;;13.23;8.48;;;23.30;48.00;;;;;;4971896;28;20065;-56
2021/03/02 00:20:18;;;;;;;12.55;8.30;;;23.30;48.00;;;;;;4969007;28;20026;-57
2021/03/02 00:22:53;;;;;;;13.82;7.95;;;23.30;48.00;;;;;;4987442;28;20150;-56
2021/03/02 00:25:19;;;;;;;12.23;7.60;;;23.30;48.10;;;;;;4972088;28;20045;-56
2021/03/02 00:27:46;;;;;;;12.85;8.18;;;23.30;48.10;;;;;;4990611;28;20093;-56
2021/03/02 00:30:15;;;;;;;12.38;8.60;;;23.30;48.10;;;;;;4977243;28;20057;-57
2021/03/02 00:32:45;;;;;;;11.55;8.18;;;23.30;48.20;;;;;;4980535;28;20298;-57
2021/03/02 00:35:11;;;;;;;12.87;8.63;;;23.30;48.20;;;;;;4973525;28;20121;-56
2021/03/02 00:37:37;;;;;;;11.57;7.95;;;23.30;48.30;;;;;;4967761;28;20269;-56
2021/03/02 00:40:03;;;;;;;12.63;7.82;;;23.30;48.30;;;;;;4985405;28;20034;-57
2021/03/02 00:42:29;;;;;;;10.55;6.82;;;23.30;48.30;;;;;;4976563;28;20035;-56
2021/03/02 00:44:55;;;;;;;12.75;7.97;;;23.30;48.30;;;;;;4972419;28;20555;-57
2021/03/02 00:47:20;;;;;;;12.50;6.90;;;23.30;48.40;;;;;;4974088;28;20073;-56
2021/03/02 00:49:48;;;;;;;14.15;7.30;;;23.30;48.40;;;;;;4978064;28;20026;-56
2021/03/02 00:52:14;;;;;;;12.48;8.15;;;23.30;48.40;;;;;;4984986;28;20030;-56
2021/03/02 00:54:40;;;;;;;13.02;8.05;;;23.30;48.40;;;;;;4991236;28;20026;-56
2021/03/02 00:57:05;;;;;;;10.50;7.55;;;23.30;48.40;;;;;;4988738;28;20031;-56
2021/03/02 00:59:31;;;;;;;14.02;7.43;;;23.30;48.50;;;;;;4989310;28;20497;-56
2021/03/02 01:01:57;;;;;;;10.07;7.65;;;23.30;48.50;;;;;;4987817;28;20042;-55
2021/03/02 01:04:23;;;;;;;10.40;7.57;;;23.30;48.50;;;;;;4993587;28;20038;-56
2021/03/02 01:06:48;;;;;;;12.77;7.28;;;23.30;48.50;;;;;;4974754;28;20029;-56
2021/03/02 01:09:14;;;;;;;13.63;8.10;;;23.30;48.60;;;;;;4992588;28;20042;-56
2021/03/02 01:11:40;;;;;;;12.05;7.38;;;23.30;48.60;;;;;;4994478;28;20034;-56
2021/03/02 01:14:06;;;;;;;11.65;7.43;;;23.30;48.60;;;;;;4990013;28;20070;-56
2021/03/02 01:16:31;;;;;;;11.65;7.97;;;23.20;48.70;;;;;;4975322;28;20070;-56
2021/03/02 01:18:57;;;;;;;10.98;7.03;;;23.30;48.70;;;;;;4947913;28;20042;-57
2021/03/02 01:21:23;;;;;;;12.63;7.22;;;23.30;48.70;;;;;;4967108;28;20042;-56
2021/03/02 01:23:49;;;;;;;11.65;7.65;;;23.30;48.70;;;;;;4974874;28;20042;-56
2021/03/02 01:26:14;;;;;;;10.95;7.45;;;23.20;48.70;;;;;;4974997;28;20390;-56
2021/03/02 01:28:40;;;;;;;9.73;6.82;;;23.20;48.80;;;;;;4973732;28;20027;-57
2021/03/02 01:31:06;;;;;;;9.52;7.13;;;23.20;48.80;;;;;;4974297;28;20039;-56
2021/03/02 01:33:32;;;;;;;12.27;7.15;;;23.20;48.80;;;;;;4974570;28;20026;-56
2021/03/02 01:35:57;;;;;;;12.15;7.15;;;23.20;48.80;;;;;;4969019;28;20042;-56
2021/03/02 01:38:23;;;;;;;11.98;6.95;;;23.20;48.80;;;;;;4974257;28;20042;-56
2021/03/02 01:40:49;;;;;;;11.07;6.20;;;23.20;48.80;;;;;;4975269;28;20035;-56
2021/03/02 01:43:15;;;;;;;10.40;6.50;;;23.20;48.80;;;;;;4974623;28;20372;-56
2021/03/02 01:45:43;;;;;;;9.73;7.07;;;23.30;48.80;;;;;;4970200;28;20038;-56
2021/03/02 01:48:09;;;;;;;10.63;7.07;;;23.20;48.80;;;;;;4968284;28;20019;-58
2021/03/02 01:50:35;;;;;;;8.85;6.63;;;23.20;48.90;;;;;;4957172;28;20047;-57
2021/03/02 01:53:01;;;;;;;10.05;6.53;;;23.20;48.90;;;;;;4953537;28;20039;-56
2021/03/02 01:55:27;;;;;;;9.15;6.50;;;23.20;48.90;;;;;;4984797;28;20446;-56
2021/03/02 01:57:52;;;;;;;10.98;6.88;;;23.20;48.90;;;;;;4954670;28;20024;-56
2021/03/02 02:00:27;;;;;;;10.60;6.50;;;23.20;48.90;;;;;;4971760;28;20047;-56
2021/03/02 02:02:56;;;;;;;11.13;6.28;;;23.20;48.90;;;;;;4973555;28;20045;-57
2021/03/02 02:05:24;;;;;;;8.85;6.68;;;23.20;48.90;;;;;;4978714;28;20133;-56
2021/03/02 02:08:00;;;;;;;9.55;6.30;;;23.20;48.90;;;;;;4972806;28;20062;-57
2021/03/02 02:10:28;;;;;;;10.43;7.25;;;23.30;48.90;;;;;;4974437;28;20043;-57
2021/03/02 02:13:01;;;;;;;11.77;7.10;;;23.20;48.90;;;;;;4972055;28;20034;-57
2021/03/02 02:15:32;;;;;;;10.13;6.68;;;23.20;49.00;;;;;;4969438;28;20026;-57
2021/03/02 02:18:05;;;;;;;10.13;6.35;;;23.20;49.00;;;;;;4956477;28;20034;-57
2021/03/02 02:20:54;;;;;;;8.52;6.07;;;23.20;49.00;;;;;;4973040;28;20114;-57
2021/03/02 02:23:34;;;;;;;9.70;6.25;;;23.20;49.00;;;;;;4974337;28;20078;-57
2021/03/02 02:26:31;;;;;;;10.95;6.78;;;23.20;49.00;;;;;;4989311;28;20053;-57
2021/03/02 02:28:58;;;;;;;9.63;6.20;;;23.20;49.00;;;;;;4987660;28;20101;-57
2021/03/02 02:31:27;;;;;;;10.27;6.70;;;23.20;49.10;;;;;;4991660;28;20023;-57
2021/03/02 02:33:53;;;;;;;10.80;7.00;;;23.20;49.10;;;;;;4987525;28;20474;-57
2021/03/02 02:36:20;;;;;;;9.32;6.47;;;23.20;49.10;;;;;;4974683;28;20041;-57
2021/03/02 02:38:50;;;;;;;11.38;6.85;;;23.20;49.10;;;;;;4978231;28;20042;-57
2021/03/02 02:41:19;;;;;;;7.72;5.97;;;23.20;49.10;;;;;;4928308;28;20038;-57
2021/03/02 02:43:45;;;;;;;11.07;6.43;;;23.20;49.10;;;;;;4988617;28;20058;-56
2021/03/02 02:46:11;;;;;;;9.55;7.03;;;23.20;49.10;;;;;;4958459;28;20029;-56
2021/03/02 02:48:37;;;;;;;8.70;6.63;;;23.20;49.10;;;;;;4983865;28;20401;-56
2021/03/02 02:51:03;;;;;;;10.90;5.85;;;23.20;49.10;;;;;;4936079;28;22366;-57
2021/03/02 02:53:31;;;;;;;9.90;6.47;;;23.20;49.10;;;;;;4880877;28;20062;-56
2021/03/02 02:56:04;;;;;;;9.27;6.75;;;23.20;49.10;;;;;;4988504;28;20105;-57
2021/03/02 02:58:37;;;;;;;9.32;6.72;;;23.20;49.10;;;;;;4987226;28;20022;-57
2021/03/02 03:01:05;;;;;;;10.77;7.00;;;23.30;49.10;;;;;;4983871;28;20033;-57
2021/03/02 03:03:35;;;;;;;9.45;6.65;;;23.20;49.10;;;;;;4991536;28;20034;-56
2021/03/02 03:06:05;;;;;;;7.63;5.88;;;23.20;49.10;;;;;;4977016;28;20031;-56
2021/03/02 03:08:33;;;;;;;9.57;6.60;;;23.20;49.10;;;;;;4964557;28;20426;-56
2021/03/02 03:11:01;;;;;;;10.07;6.47;;;23.20;49.10;;;;;;4976043;28;20034;-57
2021/03/02 03:13:35;;;;;;;10.82;6.20;;;23.20;49.10;;;;;;4984057;28;20492;-56
2021/03/02 03:16:04;;;;;;;9.80;6.57;;;23.20;49.10;;;;;;4986140;28;20084;-57
2021/03/02 03:18:34;;;;;;;8.48;6.10;;;23.20;49.10;;;;;;4991393;28;20066;-56
2021/03/02 03:21:01;;;;;;;8.68;6.40;;;23.20;49.10;;;;;;4990489;28;20485;-57
2021/03/02 03:23:28;;;;;;;9.45;6.10;;;23.20;49.10;;;;;;4991976;28;20096;-56
2021/03/02 03:25:53;;;;;;;8.77;5.78;;;23.20;49.10;;;;;;4979884;28;20029;-56
2021/03/02 03:28:20;;;;;;;8.85;5.88;;;23.20;49.10;;;;;;4985760;28;20031;-57
2021/03/02 03:30:46;;;;;;;9.27;6.20;;;23.20;49.10;;;;;;4986904;28;20478;-56
2021/03/02 03:33:15;;;;;;;7.93;6.13;;;23.20;49.10;;;;;;4962135;28;20168;-56
2021/03/02 03:35:42;;;;;;;8.77;6.05;;;23.20;49.10;;;;;;4974766;28;20038;-57
2021/03/02 03:38:08;;;;;;;9.50;6.40;;;23.20;49.20;;;;;;4983469;28;20053;-57
2021/03/02 03:40:34;;;;;;;9.52;6.45;;;23.20;49.20;;;;;;5012854;28;20480;-56
2021/03/02 03:43:01;;;;;;;8.30;6.20;;;23.20;49.20;;;;;;4988433;28;20569;-56
2021/03/02 03:45:26;;;;;;;10.43;6.60;;;23.20;49.20;;;;;;4988441;28;20038;-56
2021/03/02 03:47:52;;;;;;;9.63;5.93;;;23.20;49.20;;;;;;4986192;28;20104;-56
2021/03/02 03:50:18;;;;;;;7.47;5.40;;;23.20;49.20;;;;;;4983295;28;20038;-56
2021/03/02 03:52:49;;;;;;;9.43;6.32;;;23.20;49.20;;;;;;4987407;28;20030;-56
2021/03/02 03:55:18;;;;;;;10.02;6.20;;;23.20;49.20;;;;;;4989600;28;20315;-56
2021/03/02 03:57:46;;;;;;;10.30;6.95;;;23.20;49.20;;;;;;4990093;28;20042;-56
2021/03/02 04:00:13;;;;;;;7.72;5.60;;;23.20;49.20;;;;;;4990721;28;20040;-57
2021/03/02 04:02:40;;;;;;;8.65;6.50;;;23.20;49.20;;;;;;4989048;28;20165;-57
2021/03/02 04:05:07;;;;;;;8.40;5.53;;;23.20;49.20;;;;;;4988005;28;20038;-57
2021/03/02 04:07:34;;;;;;;9.68;5.93;;;23.20;49.20;;;;;;4987655;28;20034;-56
2021/03/02 04:10:00;;;;;;;9.73;6.80;;;23.20;49.20;;;;;;4983026;28;20037;-57
2021/03/02 04:12:36;;;;;;;8.73;5.72;;;23.20;49.20;;;;;;4990095;28;20049;-57
2021/03/02 04:15:02;;;;;;;14.27;6.63;;;23.20;49.20;;;;;;4844768;28;22983;-56
2021/03/02 04:17:28;;;;;;;8.65;5.85;;;23.20;49.20;;;;;;4871541;28;20030;-57
2021/03/02 04:19:54;;;;;;;10.48;6.53;;;23.20;49.20;;;;;;4989860;28;20026;-57
2021/03/02 04:22:19;;;;;;;10.75;6.22;;;23.20;49.20;;;;;;4974589;28;20026;-57
2021/03/02 04:24:45;;;;;;;8.90;5.60;;;23.20;49.20;;;;;;4988945;28;20173;-56
2021/03/02 04:27:11;;;;;;;8.40;5.72;;;23.20;49.20;;;;;;4983947;28;20034;-57
2021/03/02 04:29:36;;;;;;;9.70;6.15;;;23.20;49.20;;;;;;4928913;28;20480;-57
2021/03/02 04:32:02;;;;;;;7.93;6.20;;;23.20;49.20;;;;;;4961112;28;20047;-57
2021/03/02 04:34:28;;;;;;;9.05;6.00;;;23.20;49.20;;;;;;4961862;28;20031;-57
2021/03/02 04:36:54;;;;;;;7.30;5.38;;;23.20;49.20;;;;;;4970783;28;20134;-57
2021/03/02 04:39:19;;;;;;;9.52;6.55;;;23.20;49.20;;;;;;4971664;28;20035;-58
2021/03/02 04:41:45;;;;;;;9.43;6.00;;;23.20;49.20;;;;;;4968916;28;20161;-59
2021/03/02 04:44:11;;;;;;;10.23;5.88;;;23.20;49.20;;;;;;4971662;28;20402;-56
2021/03/02 04:46:36;;;;;;;9.10;6.22;;;23.20;49.20;;;;;;4970372;28;20039;-56
2021/03/02 04:49:02;;;;;;;8.20;5.60;;;23.20;49.20;;;;;;4996180;28;20225;-56
2021/03/02 04:51:28;;;;;;;9.35;5.88;;;23.20;49.20;;;;;;4961189;28;20032;-57
2021/03/02 04:53:53;;;;;;;8.38;5.65;;;23.20;49.20;;;;;;4959388;28;20381;-56
2021/03/02 04:56:19;;;;;;;8.98;6.25;;;23.20;49.20;;;;;;4962084;28;20374;-56
2021/03/02 04:58:45;;;;;;;8.27;5.38;;;23.20;49.20;;;;;;4955841;28;20378;-56
2021/03/02 05:01:11;;;;;;;9.75;5.97;;;23.20;49.20;;;;;;4969340;28;20035;-56
2021/03/02 05:03:36;;;;;;;8.57;6.07;;;23.10;49.20;;;;;;4968865;28;20043;-56
2021/03/02 05:06:02;;;;;;;9.85;5.35;;;23.20;49.20;;;;;;4962669;28;20054;-56
2021/03/02 05:08:28;;;;;;;14.73;6.85;;;23.20;49.30;;;;;;4965789;28;20504;-57
2021/03/02 05:10:54;;;;;;;9.07;5.70;;;23.20;49.30;;;;;;4966400;28;20540;-56
2021/03/02 05:13:19;;;;;;;8.75;5.70;;;23.20;49.30;;;;;;4954330;28;20035;-56
2021/03/02 05:15:45;;;;;;;14.18;6.55;;;23.20;49.20;;;;;;4957340;28;20169;-56
2021/03/02 05:18:12;;;;;;;13.48;6.28;;;23.20;48.90;;;;;;4960665;28;20043;-56
2021/03/02 05:20:37;;;;;;;15.80;7.30;;;23.20;48.60;;;;;;4963888;28;20027;-56
2021/03/02 05:23:04;;;;;;;16.08;6.85;;;23.20;48.20;;;;;;4940614;28;20039;-56
2021/03/02 05:25:30;;;;;;;15.38;7.78;;;23.10;47.90;;;;;;4908574;28;20047;-57
2021/03/02 05:27:56;;;;;;;12.30;7.53;;;23.10;47.50;;;;;;4780464;28;20440;-57
2021/03/02 05:30:22;;;;;;;16.48;8.05;;;23.10;46.90;;;;;;4829992;28;20959;-57
2021/03/02 05:32:48;;;;;;;13.10;6.93;;;23.10;46.70;;;;;;4925455;28;20023;-57
2021/03/02 05:35:13;;;;;;;17.60;7.72;;;23.10;46.50;;;;;;4969686;28;20049;-57
2021/03/02 05:37:39;;;;;;;10.50;7.07;;;23.10;46.20;;;;;;4970371;28;20042;-57
2021/03/02 05:40:06;;;;;;;15.25;7.32;;;23.10;46.00;;;;;;4970842;28;20030;-57
2021/03/02 05:42:34;;;;;;;15.43;7.30;;;23.10;45.80;;;;;;4968096;28;20157;-57
2021/03/02 05:45:03;;;;;;;15.10;7.57;;;23.00;45.60;;;;;;4967544;28;20434;-57
2021/03/02 05:47:30;;;;;;;16.10;8.93;;;23.00;45.50;;;;;;4967881;28;20573;-57
2021/03/02 05:49:56;;;;;;;14.63;7.93;;;23.00;45.10;;;;;;4969863;28;20121;-57
2021/03/02 05:52:22;;;;;;;11.98;8.02;;;23.00;45.00;;;;;;4957564;28;20031;-57
2021/03/02 05:54:52;;;;;;;15.32;7.07;;;23.00;44.90;;;;;;4955565;28;20027;-57
2021/03/02 05:57:18;;;;;;;12.57;7.20;;;23.00;44.70;;;;;;4952789;28;20027;-57
2021/03/02 05:59:44;;;;;;;13.20;7.32;;;22.90;44.70;;;;;;4954280;28;20062;-58
2021/03/02 06:02:10;;;;;;;15.10;7.25;;;23.00;44.90;;;;;;4950790;28;21475;-56
2021/03/02 06:04:36;;;;;;;17.67;7.55;;;23.00;45.10;;;;;;4952861;28;20098;-57
2021/03/02 06:07:03;;;;;;;13.13;7.93;;;22.90;45.20;;;;;;4954010;28;20443;-57
2021/03/02 06:09:30;;;;;;;13.25;7.65;;;22.90;45.10;;;;;;4951985;28;20431;-57
2021/03/02 06:12:04;;;;;;;13.07;7.22;;;22.90;45.10;;;;;;4953463;28;20035;-57
2021/03/02 06:14:32;;;;;;;18.33;7.40;;;23.00;45.10;;;;;;4950644;28;20035;-57
2021/03/02 06:16:57;;;;;;;11.93;7.70;;;22.90;45.10;;;;;;4949025;28;20090;-57
2021/03/02 06:19:47;;;;;;;14.90;6.88;;;22.90;45.00;;;;;;4944188;28;20039;-56
2021/03/02 06:22:39;;;;;;;12.98;8.00;;;22.90;44.70;;;;;;4949289;28;20027;-58
2021/03/02 06:25:07;;;;;;;20.25;8.15;;;22.90;45.00;;;;;;4948746;28;20051;-59
2021/03/02 06:27:33;;;;;;;18.67;7.57;;;22.90;45.30;;;;;;4950126;28;20450;-59
2021/03/02 06:30:11;;;;;;;21.80;7.55;;;22.90;45.60;;;;;;4822585;28;49457;-60
2021/03/02 06:32:39;;;;;;;19.65;7.35;;;23.00;45.60;;;;;;4715561;28;20508;-60
2021/03/02 06:35:07;;;;;;;13.60;7.18;;;23.00;45.60;;;;;;4824739;28;20031;-59
2021/03/02 06:37:44;;;;;;;17.17;8.27;;;23.00;45.70;;;;;;4950271;28;20114;-60
2021/03/02 06:40:14;;;;;;;13.88;7.80;;;23.00;45.70;;;;;;4941938;28;20394;-59
2021/03/02 06:42:42;;;;;;;18.10;7.95;;;23.00;45.80;;;;;;4852920;28;24350;-60
2021/03/02 06:45:15;;;;;;;16.50;7.72;;;23.00;45.90;;;;;;4769523;28;20041;-60
2021/03/02 06:47:43;;;;;;;15.35;7.63;;;23.00;46.00;;;;;;4981891;28;20503;-60
2021/03/02 06:50:12;;;;;;;14.23;7.30;;;23.10;46.00;;;;;;4987368;28;20038;-59
2021/03/02 06:52:40;;;;;;;14.55;7.72;;;23.10;46.00;;;;;;4991586;28;20485;-60
2021/03/02 06:55:15;;;;;;;14.65;7.38;;;23.10;46.10;;;;;;4992631;28;20034;-59
2021/03/02 06:57:42;;;;;;;13.02;6.85;;;23.10;46.10;;;;;;4972983;28;20034;-61
2021/03/02 07:00:08;;;;;;;13.10;7.50;;;23.10;46.20;;;;;;4832463;28;20023;-59
2021/03/02 07:02:36;;;;;;;16.48;7.53;;;23.10;46.30;;;;;;4738715;28;20085;-60
2021/03/02 07:05:14;;;;;;;14.85;7.55;;;23.10;46.30;;;;;;4823783;28;20513;-59
2021/03/02 07:07:41;;;;;;;13.40;7.15;;;23.10;46.20;;;;;;4982315;28;20031;-58
2021/03/02 07:10:09;;;;;;;11.70;6.80;;;23.10;46.30;;;;;;4742302;28;21899;-60
2021/03/02 07:12:40;;;;;;;14.20;6.72;;;23.10;46.40;;;;;;4762523;28;22482;-59
2021/03/02 07:15:11;;;;;;;11.13;6.93;;;23.20;46.40;;;;;;4780367;28;22842;-63
2021/03/02 07:17:44;;;;;;;16.00;7.43;;;23.20;46.40;;;;;;4888874;28;21830;-61
2021/03/02 07:20:15;;;;;;;11.35;6.65;;;23.20;46.40;;;;;;4749512;28;20052;-63
2021/03/02 07:22:46;;;;;;;10.18;6.63;;;23.10;46.40;;;;;;4856789;28;20393;-57
2021/03/02 07:25:13;;;;;;;;;;;23.20;46.50;;;;;;4765010;28;22925;-58
2021/03/02 07:27:43;;;;;;;10.13;5.88;;;23.10;46.60;;;;;;4779471;28;20189;-56
2021/03/02 07:30:13;;;;;;;17.75;7.13;;;23.10;46.70;;;;;;4773161;28;20120;-54
2021/03/02 07:32:42;;;;;;;10.68;7.00;;;23.10;46.90;;;;;;4785547;28;20154;-54
2021/03/02 07:35:10;;;;;;;21.85;9.45;;;23.10;47.00;;;;;;4738244;28;22162;-55
2021/03/02 07:37:36;;;;;;;19.33;8.57;;;23.00;46.70;;;;;;4804676;28;22009;-54
2021/03/02 07:40:13;;;;;;;17.98;8.43;;;23.00;46.60;;;;;;4453360;28;10001456;-54
2021/03/02 07:42:40;;;;;;;17.30;7.85;;;23.00;46.60;;;;;;4770975;28;20038;-56
2021/03/02 07:45:10;;;;;;;22.35;11.18;;;23.00;46.50;;;;;;4779854;28;20553;-55
2021/03/02 07:47:53;;;;;;;21.55;10.93;;;23.00;46.20;;;;;;4748332;28;22186;-55
2021/03/02 07:50:29;;;;;;;16.55;10.13;;;23.00;45.90;;;;;;4783569;28;25669;-55
2021/03/02 07:53:17;;;;;;;18.15;9.80;;;23.00;46.00;;;;;;4775794;28;20079;-54
2021/03/02 07:55:43;;;;;;;14.90;8.88;;;23.00;46.00;;;;;;4751852;28;23295;-54
2021/03/02 07:58:13;;;;;;;16.13;9.60;;;23.00;46.20;;;;;;4762247;28;20055;-54
2021/03/02 08:00:40;;;;;;;13.85;9.63;;;23.00;46.30;;;;;;4962605;28;20028;-54
2021/03/02 08:03:25;;;;;;;18.83;9.43;;;23.00;46.30;;;;;;4754782;28;20228;-53
2021/03/02 08:06:23;;;;;;;19.58;9.13;;;23.10;46.30;;;;;;4836438;28;20491;-53
2021/03/02 08:08:49;;;;;;;17.90;9.38;;;23.00;46.40;;;;;;4746817;28;20136;-54
2021/03/02 08:11:30;;;;;;;20.17;9.68;;;23.00;46.50;;;;;;4841775;28;20031;-54
2021/03/02 08:13:57;;;;;;;16.85;9.52;;;23.00;46.20;;;;;;4738841;28;20997;-54
2021/03/02 08:16:54;;;;;;;37.28;10.90;;;23.00;46.10;;;;;;4783770;28;22618;-57
2021/03/02 08:19:41;;;;;;;21.85;9.68;;;23.10;46.40;;;;;;4773117;28;20974;-56
2021/03/02 08:22:26;;;;;;;17.77;10.18;;;23.10;46.40;;;;;;4878439;28;20034;-56
2021/03/02 08:24:54;;;;;;;21.27;10.18;;;23.10;46.00;;;;;;4744340;28;22997;-55
2021/03/02 08:27:39;;;;;;;20.83;9.23;;;23.00;45.90;;;;;;4932147;28;20035;-56
2021/03/02 08:30:14;;;;;;;29.85;17.88;;;23.00;45.90;;;;;;4963682;28;20034;-55
